createdAt,value
2022-11-05T00:01:53.194Z,10.21
2022-11-05T00:04:42.325Z,10.19
2022-11-05T00:07:34.820Z,10.17
2022-11-05T00:10:11.135Z,10.18
2022-11-05T00:13:00.501Z,10.17
2022-11-05T00:15:49.894Z,10.15
2022-11-05T00:18:21.619Z,10.15
2022-11-05T00:20:53.259Z,10.16
2022-11-05T00:23:43.120Z,10.16
2022-11-05T00:26:15.302Z,10.13
2022-11-05T00:28:48.350Z,10.12
2022-11-05T00:31:20.016Z,10.13
2022-11-05T00:33:51.624Z,10.15
2022-11-05T00:36:23.400Z,10.13
2022-11-05T00:38:55.040Z,10.11
2022-11-05T00:41:26.673Z,10.10
2022-11-05T00:44:15.903Z,10.11
2022-11-05T00:46:47.657Z,10.13
2022-11-05T00:49:31.248Z,10.12
2022-11-05T00:52:17.120Z,10.10
2022-11-05T00:54:48.790Z,10.06
2022-11-05T00:57:20.853Z,10.05
2022-11-05T00:59:52.544Z,10.06
2022-11-05T01:02:24.517Z,10.05
2022-11-05T01:04:56.334Z,10.05
2022-11-05T01:07:28.024Z,10.05
2022-11-05T01:09:59.624Z,10.03
2022-11-05T01:12:32.304Z,10.02
2022-11-05T01:15:04.063Z,9.97
2022-11-05T01:17:35.720Z,9.94
2022-11-05T01:20:11.257Z,9.92
2022-11-05T01:22:43.006Z,9.90
2022-11-05T01:25:14.811Z,9.87
2022-11-05T01:27:46.791Z,9.85
2022-11-05T01:30:18.520Z,9.81
2022-11-05T01:32:50.195Z,9.78
2022-11-05T01:35:21.969Z,9.77
2022-11-05T01:37:53.635Z,9.76
2022-11-05T01:40:26.729Z,9.75
2022-11-05T01:42:58.404Z,9.75
2022-11-05T01:45:30.597Z,9.75
2022-11-05T01:48:08.025Z,9.74
2022-11-05T01:50:53.517Z,9.73
2022-11-05T01:53:30.293Z,9.72
2022-11-05T01:56:04.330Z,9.72
2022-11-05T01:58:40.700Z,9.72
2022-11-05T02:01:12.832Z,9.72
2022-11-05T02:03:46.163Z,9.71
2022-11-05T02:06:18.618Z,9.69
2022-11-05T02:08:57.101Z,9.67
2022-11-05T02:11:28.961Z,9.66
2022-11-05T02:14:00.739Z,9.68
2022-11-05T02:16:42.697Z,9.71
2022-11-05T02:19:49.498Z,9.73
2022-11-05T02:22:48.493Z,9.71
2022-11-05T02:25:50.523Z,9.70
2022-11-05T02:28:44.873Z,9.68
2022-11-05T02:31:24.814Z,9.65
2022-11-05T02:34:04.030Z,9.63
2022-11-05T02:36:47.249Z,9.64
2022-11-05T02:39:32.009Z,9.63
2022-11-05T02:42:11.545Z,9.63
2022-11-05T02:44:52.640Z,9.63
2022-11-05T02:47:25.706Z,9.64
2022-11-05T02:50:06.055Z,9.63
2022-11-05T02:52:50.570Z,9.65
2022-11-05T02:55:28.225Z,9.65
2022-11-05T02:58:00.823Z,9.65
2022-11-05T03:00:49.331Z,9.66
2022-11-05T03:03:35.203Z,9.68
2022-11-05T03:06:25.916Z,9.70
2022-11-05T03:09:27.613Z,9.69
2022-11-05T03:12:12.119Z,9.67
2022-11-05T03:14:53.623Z,9.62
2022-11-05T03:17:34.343Z,9.61
2022-11-05T03:20:15.251Z,9.61
2022-11-05T03:22:53.428Z,9.60
2022-11-05T03:25:30.411Z,9.60
2022-11-05T03:28:07.782Z,9.60
2022-11-05T03:30:42.207Z,9.59
2022-11-05T03:33:18.931Z,9.61
2022-11-05T03:35:54.513Z,9.62
2022-11-05T03:38:30.123Z,9.63
2022-11-05T03:41:06.058Z,9.62
2022-11-05T03:43:42.034Z,9.62
2022-11-05T03:46:22.758Z,9.63
2022-11-05T03:48:56.740Z,9.65
2022-11-05T03:51:45.290Z,9.65
2022-11-05T03:54:17.141Z,9.66
2022-11-05T03:56:58.528Z,9.67
2022-11-05T03:59:31.744Z,9.66
2022-11-05T04:02:05.377Z,9.66
2022-11-05T04:04:37.092Z,9.65
2022-11-05T04:07:27.178Z,9.64
2022-11-05T04:10:16.601Z,9.64
2022-11-05T04:13:08.944Z,9.65
2022-11-05T04:15:54.660Z,9.64
2022-11-05T04:18:26.428Z,9.65
2022-11-05T04:21:15.989Z,9.65
2022-11-05T04:24:05.258Z,9.64
2022-11-05T04:26:36.947Z,9.63
2022-11-05T04:29:27.218Z,9.63
2022-11-05T04:31:59.089Z,9.63
2022-11-05T04:34:31.144Z,9.64
2022-11-05T04:37:02.758Z,9.63
2022-11-05T04:39:34.413Z,9.62
2022-11-05T04:42:06.582Z,9.58
2022-11-05T04:44:38.506Z,9.56
2022-11-05T04:47:10.148Z,9.54
2022-11-05T04:49:41.792Z,9.54
2022-11-05T04:52:13.935Z,9.53
2022-11-05T04:54:45.756Z,9.52
2022-11-05T04:57:17.649Z,9.51
2022-11-05T04:59:52.160Z,9.48
2022-11-05T05:02:23.770Z,9.49
2022-11-05T05:04:56.014Z,9.47
2022-11-05T05:07:28.559Z,9.45
2022-11-05T05:10:00.177Z,9.44
2022-11-05T05:12:32.787Z,9.41
2022-11-05T05:15:05.372Z,9.38
2022-11-05T05:17:37.002Z,9.36
2022-11-05T05:20:32.222Z,9.33
2022-11-05T05:23:04.012Z,9.32
2022-11-05T05:25:35.769Z,9.32
2022-11-05T05:28:07.629Z,9.31
2022-11-05T05:30:39.288Z,9.31
2022-11-05T05:33:11.215Z,9.28
2022-11-05T05:35:43.104Z,9.27
2022-11-05T05:38:14.743Z,9.25
2022-11-05T05:40:46.551Z,9.24
2022-11-05T05:43:18.529Z,9.23
2022-11-05T05:45:50.694Z,9.21
2022-11-05T05:48:22.265Z,9.19
2022-11-05T05:50:53.954Z,9.18
2022-11-05T05:53:25.812Z,9.18
2022-11-05T05:55:58.107Z,9.14
2022-11-05T05:58:34.474Z,9.12
2022-11-05T06:01:15.576Z,9.13
2022-11-05T06:03:51.460Z,9.12
2022-11-05T06:06:23.113Z,9.12
2022-11-05T06:08:55.532Z,9.11
2022-11-05T06:11:27.619Z,9.12
2022-11-05T06:13:59.221Z,9.14
2022-11-05T06:16:35.573Z,9.16
2022-11-05T06:19:07.547Z,9.17
2022-11-05T06:21:39.297Z,9.18
2022-11-05T06:24:12.845Z,9.20
2022-11-05T06:26:45.212Z,9.22
2022-11-05T06:29:16.873Z,9.22
2022-11-05T06:31:48.627Z,9.24
2022-11-05T06:34:20.226Z,9.28
2022-11-05T06:36:51.869Z,9.32
2022-11-05T06:39:23.891Z,9.37
2022-11-05T06:44:47.729Z,9.48
2022-11-05T06:47:20.070Z,9.52
2022-11-05T06:49:52.028Z,9.54
2022-11-05T06:52:23.857Z,9.58
2022-11-05T06:54:55.747Z,9.61
2022-11-05T06:57:27.572Z,9.61
2022-11-05T07:00:03.303Z,9.63
2022-11-05T07:02:45.866Z,9.64
2022-11-05T07:05:18.646Z,9.66
2022-11-05T07:07:50.288Z,9.67
2022-11-05T07:10:21.913Z,9.66
2022-11-05T07:12:53.614Z,9.69
2022-11-05T07:15:25.265Z,9.70
2022-11-05T07:18:01.392Z,9.73
2022-11-05T07:20:34.468Z,9.76
2022-11-05T07:23:08.006Z,9.79
2022-11-05T07:25:40.093Z,9.83
2022-11-05T07:28:14.512Z,9.88
2022-11-05T07:30:46.471Z,9.93
2022-11-05T07:33:18.175Z,9.96
2022-11-05T07:35:49.784Z,9.99
2022-11-05T07:38:21.420Z,9.99
2022-11-05T07:40:53.157Z,10.03
2022-11-05T07:43:24.828Z,10.08
2022-11-05T07:45:56.726Z,10.09
2022-11-05T07:48:28.400Z,10.11
2022-11-05T07:51:00.038Z,10.11
2022-11-05T07:53:31.736Z,10.13
2022-11-05T07:56:03.349Z,10.16
2022-11-05T07:58:36.987Z,10.16
2022-11-05T08:01:08.802Z,10.17
2022-11-05T08:03:40.554Z,10.20
2022-11-05T08:06:12.309Z,10.26
2022-11-05T08:08:44.496Z,10.32
2022-11-05T08:11:16.265Z,10.36
2022-11-05T08:13:48.098Z,10.38
2022-11-05T08:16:20.159Z,10.45
2022-11-05T08:18:51.847Z,10.55
2022-11-05T08:21:23.395Z,10.65
2022-11-05T08:23:55.358Z,10.70
2022-11-05T08:26:27.020Z,10.73
2022-11-05T08:29:00.505Z,10.74
2022-11-05T08:31:32.198Z,10.75
2022-11-05T08:34:03.973Z,10.78
2022-11-05T08:36:37.193Z,10.81
2022-11-05T08:39:14.245Z,10.80
2022-11-05T08:41:48.470Z,10.73
2022-11-05T08:44:20.232Z,10.68
2022-11-05T08:46:52.130Z,10.62
2022-11-05T08:49:23.898Z,10.58
2022-11-05T08:51:55.578Z,10.54
2022-11-05T08:54:27.279Z,10.54
2022-11-05T08:56:58.945Z,10.55
2022-11-05T08:59:31.557Z,10.61
2022-11-05T09:02:03.357Z,10.67
2022-11-05T09:04:35.134Z,10.77
2022-11-05T09:07:06.791Z,10.85
2022-11-05T09:09:38.528Z,10.93
2022-11-05T09:12:13.135Z,10.94
2022-11-05T09:14:45.092Z,10.97
2022-11-05T09:17:21.949Z,10.97
2022-11-05T09:19:53.570Z,11.02
2022-11-05T09:22:25.188Z,11.07
2022-11-05T09:24:56.852Z,11.18
2022-11-05T09:27:28.500Z,11.24
2022-11-05T09:30:00.161Z,11.29
2022-11-05T09:32:33.147Z,11.35
2022-11-05T09:35:05.068Z,11.38
2022-11-05T09:37:37.620Z,11.42
2022-11-05T09:40:21.828Z,11.46
2022-11-05T09:42:55.235Z,11.54
2022-11-05T09:45:29.184Z,11.57
2022-11-05T09:48:05.467Z,11.59
2022-11-05T09:50:41.364Z,11.62
2022-11-05T09:53:16.955Z,11.61
2022-11-05T09:55:51.836Z,11.58
2022-11-05T09:58:29.107Z,11.61
2022-11-05T10:01:01.657Z,11.62
2022-11-05T10:03:35.601Z,11.66
2022-11-05T10:06:12.282Z,11.76
2022-11-05T10:08:46.397Z,11.86
2022-11-05T10:11:22.287Z,11.95
2022-11-05T10:13:58.051Z,11.96
2022-11-05T10:16:33.674Z,11.99
2022-11-05T10:19:09.917Z,12.08
2022-11-05T10:22:05.692Z,12.14
2022-11-05T10:24:33.680Z,12.21
2022-11-05T10:27:06.464Z,12.24
2022-11-05T10:29:38.579Z,12.29
2022-11-05T10:32:12.168Z,12.33
2022-11-05T10:34:44.860Z,12.35
2022-11-05T10:37:16.579Z,12.43
2022-11-05T10:39:48.227Z,12.52
2022-11-05T10:42:48.071Z,12.57
2022-11-05T10:45:30.334Z,12.67
2022-11-05T10:48:27.141Z,12.82
2022-11-05T10:50:59.053Z,13.05
2022-11-05T10:53:34.073Z,13.15
2022-11-05T10:56:26.211Z,13.13
2022-11-05T10:59:00.046Z,13.01
2022-11-05T11:01:32.374Z,13.02
2022-11-05T11:04:21.624Z,13.04
2022-11-05T11:06:55.717Z,13.00
2022-11-05T11:09:30.364Z,12.95
2022-11-05T11:12:15.049Z,13.05
2022-11-05T11:15:03.025Z,13.13
2022-11-05T11:17:35.077Z,13.17
2022-11-05T11:20:24.156Z,13.24
2022-11-05T11:23:14.036Z,13.27
2022-11-05T11:25:52.996Z,13.22
2022-11-05T11:28:29.691Z,13.30
2022-11-05T11:31:10.053Z,13.32
2022-11-05T11:33:45.152Z,13.29
2022-11-05T11:36:20.032Z,13.24
2022-11-05T11:38:51.794Z,13.19
2022-11-05T11:41:28.908Z,13.19
2022-11-05T11:44:05.447Z,13.24
2022-11-05T11:46:38.135Z,13.29
2022-11-05T11:49:31.149Z,13.34
2022-11-05T11:52:06.967Z,13.46
2022-11-05T11:54:38.632Z,13.43
2022-11-05T11:57:23.395Z,13.49
2022-11-05T12:00:11.806Z,13.57
2022-11-05T12:03:01.905Z,13.73
2022-11-05T12:05:46.119Z,13.84
2022-11-05T12:08:45.538Z,13.85
2022-11-05T12:11:24.814Z,13.94
2022-11-05T12:14:04.505Z,14.07
2022-11-05T12:17:00.380Z,14.08
2022-11-05T12:19:49.870Z,13.99
2022-11-05T12:22:31.672Z,13.93
2022-11-05T12:25:20.158Z,13.91
2022-11-05T12:28:24.301Z,13.78
2022-11-05T12:31:04.097Z,13.66
2022-11-05T12:33:51.626Z,13.55
2022-11-05T12:36:40.807Z,13.49
2022-11-05T12:39:30.320Z,13.52
2022-11-05T12:42:09.408Z,13.52
2022-11-05T12:44:56.310Z,13.50
2022-11-05T12:47:44.424Z,13.53
2022-11-05T12:50:23.565Z,13.59
2022-11-05T12:53:22.044Z,13.57
2022-11-05T12:55:55.093Z,13.54
2022-11-05T12:58:31.574Z,13.57
2022-11-05T13:01:07.793Z,13.45
2022-11-05T13:03:45.408Z,13.31
2022-11-05T13:06:20.405Z,13.20
2022-11-05T13:08:59.767Z,13.19
2022-11-05T13:11:35.780Z,13.22
2022-11-05T13:14:14.967Z,13.32
2022-11-05T13:16:50.599Z,13.41
2022-11-05T13:19:26.247Z,13.57
2022-11-05T13:22:07.928Z,13.76
2022-11-05T13:24:45.686Z,13.93
2022-11-05T13:27:36.063Z,13.86
2022-11-05T13:30:26.728Z,13.82
2022-11-05T13:33:03.145Z,13.75
2022-11-05T13:35:41.824Z,13.72
2022-11-05T13:38:39.047Z,13.69
2022-11-05T13:41:25.281Z,13.58
2022-11-05T13:44:24.720Z,13.50
2022-11-05T13:47:16.769Z,13.47
2022-11-05T13:50:13.186Z,13.39
2022-11-05T13:53:01.491Z,13.26
2022-11-05T13:56:10.524Z,13.16
2022-11-05T13:59:05.635Z,13.18
2022-11-05T14:01:50.433Z,13.16
2022-11-05T14:04:35.711Z,13.12
2022-11-05T14:07:13.712Z,13.05
2022-11-05T14:09:45.962Z,13.00
2022-11-05T14:12:26.666Z,12.93
2022-11-05T14:15:05.669Z,12.89
2022-11-05T14:17:57.583Z,12.88
2022-11-05T14:20:44.858Z,12.82
2022-11-05T14:23:51.961Z,12.76
2022-11-05T14:26:28.611Z,12.65
2022-11-05T14:29:37.383Z,12.56
2022-11-05T14:32:28.740Z,12.46
2022-11-05T14:35:05.603Z,12.36
2022-11-05T14:37:41.183Z,12.25
2022-11-05T14:40:37.392Z,12.14
2022-11-05T14:43:18.966Z,12.05
2022-11-05T14:46:00.690Z,11.94
2022-11-05T14:48:40.579Z,11.85
2022-11-05T14:51:32.582Z,11.72
2022-11-05T14:54:07.902Z,11.60
2022-11-05T14:56:55.907Z,11.50
2022-11-05T14:59:54.002Z,11.40
2022-11-05T15:02:28.732Z,11.29
2022-11-05T15:05:35.657Z,11.20
2022-11-05T15:08:31.056Z,11.11
2022-11-05T15:11:13.714Z,11.01
2022-11-05T15:13:59.559Z,10.94
2022-11-05T15:16:36.657Z,10.85
2022-11-05T15:19:17.770Z,10.76
2022-11-05T15:21:48.412Z,10.68
2022-11-05T15:24:21.712Z,10.60
2022-11-05T15:27:02.444Z,10.52
2022-11-05T15:29:34.751Z,10.43
2022-11-05T15:32:15.996Z,10.34
2022-11-05T15:34:55.967Z,10.25
2022-11-05T15:37:29.108Z,10.16
2022-11-05T15:40:00.814Z,10.08
2022-11-05T15:42:32.825Z,10.02
2022-11-05T15:45:04.547Z,9.97
2022-11-05T15:47:36.526Z,9.90
2022-11-05T15:50:15.474Z,9.84
2022-11-05T15:53:04.820Z,9.76
2022-11-05T15:55:55.250Z,9.69
2022-11-05T15:58:28.156Z,9.63
2022-11-05T16:01:00.132Z,9.57
2022-11-05T16:03:34.902Z,9.51
2022-11-05T16:06:11.614Z,9.46
2022-11-05T16:08:49.430Z,9.39
2022-11-05T16:11:27.301Z,9.34
2022-11-05T16:14:16.362Z,9.28
2022-11-05T16:16:48.634Z,9.20
2022-11-05T16:19:42.786Z,9.12
2022-11-05T16:22:14.610Z,9.06
2022-11-05T16:24:49.333Z,9.01
2022-11-05T16:27:24.301Z,8.95
2022-11-05T16:29:58.163Z,8.90
2022-11-05T16:32:32.030Z,8.84
2022-11-05T16:35:06.358Z,8.80
2022-11-05T16:37:49.154Z,8.76
2022-11-05T16:40:29.568Z,8.73
2022-11-05T16:43:18.066Z,8.69
2022-11-05T16:45:50.072Z,8.63
2022-11-05T16:48:21.718Z,8.57
2022-11-05T16:50:54.416Z,8.52
2022-11-05T16:53:26.069Z,8.47
2022-11-05T16:55:57.731Z,8.42
2022-11-05T16:58:29.849Z,8.38
2022-11-05T17:01:05.272Z,8.33
2022-11-05T17:03:37.213Z,8.29
2022-11-05T17:06:10.862Z,8.25
2022-11-05T17:08:44.413Z,8.19
2022-11-05T17:11:19.146Z,8.14
2022-11-05T17:13:51.239Z,8.12
2022-11-05T17:16:22.870Z,8.09
2022-11-05T17:18:54.443Z,8.06
2022-11-05T17:21:26.139Z,8.02
2022-11-05T17:23:57.847Z,7.97
2022-11-05T17:26:29.614Z,7.94
2022-11-05T17:29:02.442Z,7.93
2022-11-05T17:31:34.150Z,7.91
2022-11-05T17:34:05.783Z,7.90
2022-11-05T17:36:39.690Z,7.86
2022-11-05T17:39:12.840Z,7.82
2022-11-05T17:41:44.804Z,7.78
2022-11-05T17:44:16.535Z,7.75
2022-11-05T17:46:48.154Z,7.73
2022-11-05T17:49:19.736Z,7.69
2022-11-05T17:51:51.494Z,7.65
2022-11-05T17:54:23.136Z,7.61
2022-11-05T17:56:54.794Z,7.56
2022-11-05T17:59:26.567Z,7.54
2022-11-05T18:01:58.609Z,7.52
2022-11-05T18:04:30.658Z,7.49
2022-11-05T18:07:02.382Z,7.46
2022-11-05T18:09:34.315Z,7.42
2022-11-05T18:12:08.491Z,7.38
2022-11-05T18:14:40.735Z,7.34
2022-11-05T18:17:12.442Z,7.31
2022-11-05T18:19:44.222Z,7.28
2022-11-05T18:22:18.584Z,7.26
2022-11-05T18:24:50.477Z,7.24
2022-11-05T18:27:24.610Z,7.21
2022-11-05T18:29:56.474Z,7.18
2022-11-05T18:32:28.532Z,7.14
2022-11-05T18:35:00.345Z,7.12
2022-11-05T18:37:32.089Z,7.07
2022-11-05T18:40:03.805Z,7.03
2022-11-05T18:42:35.578Z,7.00
2022-11-05T18:45:10.795Z,6.97
2022-11-05T18:47:42.611Z,6.93
2022-11-05T18:50:14.701Z,6.87
2022-11-05T18:52:46.765Z,6.83
2022-11-05T18:55:18.559Z,6.80
2022-11-05T18:57:50.368Z,6.75
2022-11-05T19:00:22.458Z,6.72
2022-11-05T19:02:54.447Z,6.70
2022-11-05T19:05:30.109Z,6.68
2022-11-05T19:08:02.361Z,6.67
2022-11-05T19:10:34.012Z,6.64
2022-11-05T19:13:05.947Z,6.58
2022-11-05T19:15:37.606Z,6.53
2022-11-05T19:18:09.422Z,6.51
2022-11-05T19:20:41.289Z,6.49
2022-11-05T19:23:13.015Z,6.45
2022-11-05T19:25:44.766Z,6.43
2022-11-05T19:28:18.969Z,6.39
2022-11-05T19:30:51.004Z,6.35
2022-11-05T19:33:22.726Z,6.33
2022-11-05T19:35:54.439Z,6.30
2022-11-05T19:38:27.225Z,6.27
2022-11-05T19:40:58.935Z,6.24
2022-11-05T19:43:30.742Z,6.24
2022-11-05T19:46:02.616Z,6.23
2022-11-05T19:48:34.522Z,6.22
2022-11-05T19:51:09.733Z,6.19
2022-11-05T19:53:42.524Z,6.15
2022-11-05T19:56:16.200Z,6.12
2022-11-05T19:58:48.190Z,6.09
2022-11-05T20:01:21.105Z,6.08
2022-11-05T20:03:53.497Z,6.04
2022-11-05T20:06:29.419Z,6.02
2022-11-05T20:11:56.698Z,5.97
2022-11-05T20:14:29.884Z,5.94
2022-11-05T20:17:01.679Z,5.91
2022-11-05T20:19:33.637Z,5.90
2022-11-05T20:22:05.425Z,5.91
2022-11-05T20:24:37.530Z,5.92
2022-11-05T20:27:09.536Z,5.92
2022-11-05T20:29:41.453Z,5.88
2022-11-05T20:32:14.320Z,5.79
2022-11-05T20:34:46.050Z,5.70
2022-11-05T20:37:17.713Z,5.69
2022-11-05T20:39:49.523Z,5.70
2022-11-05T20:42:22.776Z,5.70
2022-11-05T20:44:54.774Z,5.73
2022-11-05T20:47:26.527Z,5.74
2022-11-05T20:49:58.541Z,5.75
2022-11-05T20:52:30.743Z,5.74
2022-11-05T20:55:03.432Z,5.73
2022-11-05T20:57:35.164Z,5.73
2022-11-05T21:00:12.852Z,5.71
2022-11-05T21:02:44.616Z,5.70
2022-11-05T21:05:22.149Z,5.69
2022-11-05T21:07:54.041Z,5.68
2022-11-05T21:10:27.019Z,5.65
2022-11-05T21:12:59.217Z,5.64
2022-11-05T21:15:31.027Z,5.60
2022-11-05T21:18:02.737Z,5.58
2022-11-05T21:20:34.396Z,5.55
2022-11-05T21:23:06.208Z,5.53
2022-11-05T21:25:40.131Z,5.52
2022-11-05T21:28:13.229Z,5.52
2022-11-05T21:30:50.838Z,5.52
2022-11-05T21:33:22.487Z,5.50
2022-11-05T21:35:54.552Z,5.48
2022-11-05T21:38:26.837Z,5.46
2022-11-05T21:41:01.074Z,5.43
2022-11-05T21:43:32.834Z,5.42
2022-11-05T21:46:05.692Z,5.42
2022-11-05T21:48:37.462Z,5.41
2022-11-05T21:51:28.242Z,5.41
2022-11-05T21:54:26.167Z,5.38
2022-11-05T21:57:20.775Z,5.34
2022-11-05T21:59:57.577Z,5.33
2022-11-05T22:02:29.670Z,5.31
2022-11-05T22:05:03.273Z,5.32
2022-11-05T22:07:37.449Z,5.31
2022-11-05T22:10:16.131Z,5.31
2022-11-05T22:12:48.549Z,5.29
2022-11-05T22:15:20.493Z,5.26
2022-11-05T22:17:53.412Z,5.24
2022-11-05T22:20:25.724Z,5.21
2022-11-05T22:23:02.227Z,5.21
2022-11-05T22:25:36.574Z,5.19
2022-11-05T22:28:12.559Z,5.17
2022-11-05T22:30:53.404Z,5.12
2022-11-05T22:33:25.912Z,5.05
2022-11-05T22:35:57.529Z,5.00
2022-11-05T22:38:29.214Z,4.99
2022-11-05T22:41:01.263Z,5.02
2022-11-05T22:43:34.577Z,5.05
2022-11-05T22:46:12.658Z,5.07
2022-11-05T22:48:46.760Z,5.08
2022-11-05T22:51:20.950Z,5.10
2022-11-05T22:53:52.985Z,5.11
2022-11-05T22:56:27.116Z,5.12
2022-11-05T22:58:59.614Z,5.12
2022-11-05T23:01:31.568Z,5.13
2022-11-05T23:04:03.229Z,5.14
2022-11-05T23:06:52.832Z,5.16
2022-11-05T23:09:43.556Z,5.17
2022-11-05T23:12:24.908Z,5.16
2022-11-05T23:14:55.960Z,5.15
2022-11-05T23:17:45.944Z,5.12
2022-11-05T23:20:37.155Z,5.12
2022-11-05T23:23:27.777Z,5.12
2022-11-05T23:26:21.259Z,5.08
2022-11-05T23:28:53.053Z,5.06
2022-11-05T23:31:42.247Z,5.04
2022-11-05T23:34:13.880Z,5.01
2022-11-05T23:37:03.000Z,5.01
2022-11-05T23:39:39.659Z,4.99
2022-11-05T23:42:31.562Z,4.96
2022-11-05T23:45:20.707Z,4.95
2022-11-05T23:48:10.031Z,4.92
2022-11-05T23:50:42.550Z,4.83
2022-11-05T23:53:14.601Z,4.81
2022-11-05T23:55:46.705Z,4.80
2022-11-05T23:58:19.143Z,4.80
